createdAt,value
2023-03-25T00:01:44.137Z,7.80
2023-03-25T00:04:10.484Z,12.48
2023-03-25T00:06:36.898Z,10.68
2023-03-25T00:09:04.082Z,7.90
2023-03-25T00:11:30.689Z,12.75
2023-03-25T00:13:57.095Z,9.18
2023-03-25T00:16:24.107Z,8.27
2023-03-25T00:18:51.150Z,9.75
2023-03-25T00:21:18.739Z,8.13
2023-03-25T00:23:45.193Z,9.73
2023-03-25T00:26:11.730Z,9.88
2023-03-25T00:28:38.476Z,9.18
2023-03-25T00:31:08.968Z,9.48
2023-03-25T00:33:35.511Z,10.52
2023-03-25T00:36:04.369Z,7.63
2023-03-25T00:38:34.185Z,6.97
2023-03-25T00:41:27.382Z,8.70
2023-03-25T00:43:58.893Z,8.25
2023-03-25T00:46:27.685Z,10.32
2023-03-25T00:48:54.376Z,12.10
2023-03-25T00:51:22.100Z,9.98
2023-03-25T00:53:54.850Z,7.45
2023-03-25T00:56:23.184Z,9.27
2023-03-25T00:58:50.303Z,8.68
2023-03-25T01:01:23.179Z,9.23
2023-03-25T01:03:57.898Z,9.93
2023-03-25T01:06:34.708Z,8.60
2023-03-25T01:09:04.212Z,11.35
2023-03-25T01:11:37.554Z,8.65
2023-03-25T01:14:06.917Z,7.97
2023-03-25T01:16:34.170Z,10.18
2023-03-25T01:19:00.773Z,8.32
2023-03-25T01:21:27.222Z,11.13
2023-03-25T01:23:53.581Z,8.30
2023-03-25T01:26:19.945Z,13.93
2023-03-25T01:28:46.304Z,9.50
2023-03-25T01:31:14.854Z,8.65
2023-03-25T01:33:41.512Z,9.25
2023-03-25T01:36:09.523Z,9.75
2023-03-25T01:38:37.178Z,8.57
2023-03-25T01:41:04.444Z,9.35
2023-03-25T01:43:31.720Z,13.75
2023-03-25T01:45:59.025Z,9.52
2023-03-25T01:48:32.907Z,8.10
2023-03-25T01:51:06.249Z,8.70
2023-03-25T01:53:33.618Z,8.98
2023-03-25T01:56:02.807Z,8.27
2023-03-25T01:58:31.449Z,10.18
2023-03-25T02:00:58.263Z,9.57
2023-03-25T02:03:25.160Z,11.95
2023-03-25T02:06:02.573Z,12.30
2023-03-25T02:08:32.594Z,10.68
2023-03-25T02:10:59.100Z,9.25
2023-03-25T02:13:25.653Z,11.63
2023-03-25T02:16:11.446Z,10.68
2023-03-25T02:18:54.426Z,11.35
2023-03-25T02:21:52.740Z,9.93
2023-03-25T02:24:53.799Z,11.98
2023-03-25T02:27:46.034Z,12.50
2023-03-25T02:33:14.186Z,22.88
2023-03-25T02:36:03.779Z,11.98
2023-03-25T02:38:40.447Z,11.70
2023-03-25T02:41:16.068Z,3.42
2023-03-25T02:43:51.456Z,2.58
2023-03-25T02:46:19.291Z,1.40
2023-03-25T02:48:58.865Z,3.35
2023-03-25T02:51:31.153Z,1.38
2023-03-25T02:54:02.606Z,2.63
2023-03-25T02:56:32.829Z,2.53
2023-03-25T02:59:01.010Z,2.67
2023-03-25T03:01:27.492Z,1.17
2023-03-25T03:03:56.381Z,2.85
2023-03-25T03:06:24.884Z,1.92
2023-03-25T03:08:51.232Z,1.58
2023-03-25T03:11:21.443Z,1.83
2023-03-25T03:14:30.618Z,2.00
2023-03-25T03:17:09.089Z,1.48
2023-03-25T03:19:46.229Z,2.03
2023-03-25T03:22:52.357Z,1.33
2023-03-25T03:25:34.682Z,1.75
2023-03-25T03:28:28.848Z,3.25
2023-03-25T03:31:06.544Z,1.50
2023-03-25T03:34:04.521Z,2.70
2023-03-25T03:36:37.278Z,2.78
2023-03-25T03:39:20.527Z,2.97
2023-03-25T03:44:20.605Z,4.47
2023-03-25T03:46:54.643Z,4.53
2023-03-25T03:49:28.686Z,3.75
2023-03-25T03:52:07.913Z,3.47
2023-03-25T03:54:44.699Z,3.72
2023-03-25T03:57:22.309Z,4.45
2023-03-25T04:00:10.216Z,5.70
2023-03-25T04:02:50.712Z,4.03
2023-03-25T04:05:22.199Z,3.95
2023-03-25T04:07:59.092Z,3.40
2023-03-25T04:10:29.888Z,3.42
2023-03-25T04:13:00.371Z,5.32
2023-03-25T04:15:27.107Z,3.05
2023-03-25T04:17:53.647Z,4.38
2023-03-25T04:20:26.224Z,6.70
2023-03-25T04:22:53.650Z,4.93
2023-03-25T04:25:25.195Z,5.93
2023-03-25T04:27:53.775Z,2.92
2023-03-25T04:30:21.703Z,3.97
2023-03-25T04:32:48.739Z,4.95
2023-03-25T04:35:18.544Z,3.28
2023-03-25T04:37:46.551Z,5.10
2023-03-25T04:40:16.654Z,3.63
2023-03-25T04:42:44.181Z,5.22
2023-03-25T04:45:16.406Z,4.10
2023-03-25T04:47:46.860Z,3.57
2023-03-25T04:50:40.882Z,2.92
2023-03-25T04:53:10.037Z,4.68
2023-03-25T04:55:37.136Z,3.97
2023-03-25T04:58:03.792Z,6.35
2023-03-25T05:00:30.608Z,5.88
2023-03-25T05:03:01.730Z,3.92
2023-03-25T05:05:29.290Z,4.03
2023-03-25T05:07:58.449Z,8.10
2023-03-25T05:10:29.767Z,5.28
2023-03-25T05:13:01.609Z,3.03
2023-03-25T05:15:30.600Z,7.60
2023-03-25T05:17:57.116Z,5.35
2023-03-25T05:20:24.450Z,6.32
2023-03-25T05:22:53.859Z,5.43
2023-03-25T05:25:23.357Z,5.68
2023-03-25T05:27:49.721Z,6.05
2023-03-25T05:30:17.227Z,4.07
2023-03-25T05:32:45.565Z,3.88
2023-03-25T05:35:12.722Z,5.63
2023-03-25T05:37:39.632Z,4.30
2023-03-25T05:40:14.812Z,6.18
2023-03-25T05:42:46.892Z,5.65
2023-03-25T05:45:13.335Z,8.02
2023-03-25T05:47:40.126Z,6.60
2023-03-25T05:50:08.197Z,5.35
2023-03-25T05:52:36.672Z,5.10
2023-03-25T05:55:05.147Z,8.02
2023-03-25T05:57:32.620Z,4.63
2023-03-25T05:59:59.857Z,7.43
2023-03-25T06:02:26.501Z,4.82
2023-03-25T06:04:53.749Z,7.22
2023-03-25T06:07:20.552Z,4.93
2023-03-25T06:09:47.508Z,5.03
2023-03-25T06:12:20.108Z,4.35
2023-03-25T06:14:48.234Z,6.63
2023-03-25T06:17:18.961Z,5.25
2023-03-25T06:19:45.923Z,3.10
2023-03-25T06:22:12.829Z,4.68
2023-03-25T06:24:41.874Z,4.30
2023-03-25T06:27:14.396Z,5.80
2023-03-25T06:32:14.640Z,6.03
2023-03-25T06:34:44.708Z,4.35
2023-03-25T06:37:11.618Z,4.88
2023-03-25T06:39:38.472Z,4.97
2023-03-25T06:42:13.451Z,4.45
2023-03-25T06:45:03.456Z,4.68
2023-03-25T06:47:44.059Z,6.05
2023-03-25T06:50:11.124Z,5.75
2023-03-25T06:52:37.693Z,6.05
2023-03-25T06:55:05.295Z,4.45
2023-03-25T06:57:31.728Z,6.47
2023-03-25T06:59:58.932Z,5.53
2023-03-25T07:02:25.838Z,6.50
2023-03-25T07:04:52.528Z,5.10
2023-03-25T07:07:19.291Z,6.03
2023-03-25T07:09:45.684Z,6.10
2023-03-25T07:12:12.029Z,6.45
2023-03-25T07:14:38.468Z,5.72
2023-03-25T07:17:04.807Z,7.45
2023-03-25T07:19:31.292Z,6.43
2023-03-25T07:21:57.713Z,5.45
2023-03-25T07:24:24.119Z,6.78
2023-03-25T07:26:50.496Z,4.15
2023-03-25T07:29:19.784Z,9.13
2023-03-25T07:31:46.628Z,7.25
2023-03-25T07:34:13.093Z,8.90
2023-03-25T07:36:39.464Z,10.32
2023-03-25T07:39:05.901Z,5.40
2023-03-25T07:41:32.785Z,6.72
2023-03-25T07:44:09.523Z,9.13
2023-03-25T07:46:37.568Z,8.50
2023-03-25T07:49:04.033Z,8.98
2023-03-25T07:51:31.033Z,10.93
2023-03-25T07:54:05.296Z,6.18
2023-03-25T07:56:32.275Z,7.95
2023-03-25T07:58:58.647Z,7.43
2023-03-25T08:01:25.362Z,11.73
2023-03-25T08:03:52.204Z,7.85
2023-03-25T08:06:18.676Z,8.25
2023-03-25T08:08:45.405Z,8.70
2023-03-25T08:11:11.901Z,11.25
2023-03-25T08:13:38.752Z,11.18
2023-03-25T08:16:12.324Z,12.00
2023-03-25T08:18:39.068Z,8.32
2023-03-25T08:21:06.007Z,6.65
2023-03-25T08:23:36.779Z,9.50
2023-03-25T08:26:05.492Z,11.15
2023-03-25T08:28:33.227Z,8.95
2023-03-25T08:31:02.336Z,5.57
2023-03-25T08:33:40.809Z,11.02
2023-03-25T08:36:10.580Z,8.25
2023-03-25T08:38:37.170Z,9.55
2023-03-25T08:41:03.744Z,11.60
2023-03-25T08:43:30.347Z,9.77
2023-03-25T08:45:56.776Z,8.00
2023-03-25T08:48:24.351Z,10.93
2023-03-25T08:50:50.802Z,12.15
2023-03-25T08:53:17.191Z,8.95
2023-03-25T08:55:43.999Z,12.13
2023-03-25T08:58:10.484Z,10.32
2023-03-25T09:00:37.763Z,9.68
2023-03-25T09:03:04.994Z,9.57
2023-03-25T09:05:31.541Z,9.27
2023-03-25T09:07:58.018Z,8.25
2023-03-25T09:10:24.553Z,7.10
2023-03-25T09:12:51.648Z,13.65
2023-03-25T09:15:18.357Z,12.27
2023-03-25T09:17:44.742Z,10.65
2023-03-25T09:20:11.730Z,7.65
2023-03-25T09:22:38.741Z,11.90
2023-03-25T09:25:06.762Z,6.40
2023-03-25T09:27:33.970Z,10.70
2023-03-25T09:30:00.377Z,8.85
2023-03-25T09:32:26.837Z,11.25
2023-03-25T09:34:53.240Z,4.90
2023-03-25T09:37:19.672Z,8.82
2023-03-25T09:39:46.150Z,11.45
2023-03-25T09:42:37.346Z,15.23
2023-03-25T09:45:25.973Z,7.80
2023-03-25T09:48:17.224Z,4.47
2023-03-25T09:53:53.822Z,9.13
2023-03-25T09:56:24.267Z,3.47
2023-03-25T09:59:07.424Z,3.28
2023-03-25T10:01:34.661Z,4.97
2023-03-25T10:04:01.343Z,4.85
2023-03-25T10:06:30.182Z,5.47
2023-03-25T10:09:18.350Z,3.22
2023-03-25T10:12:07.623Z,4.55
2023-03-25T10:14:49.966Z,4.00
2023-03-25T10:17:33.334Z,2.73
2023-03-25T10:20:19.557Z,4.32
2023-03-25T10:23:36.271Z,4.18
2023-03-25T10:26:41.050Z,3.15
2023-03-25T10:29:14.104Z,3.03
2023-03-25T10:34:18.522Z,5.95
2023-03-25T10:39:33.950Z,6.35
2023-03-25T10:42:12.543Z,5.40
2023-03-25T10:44:39.059Z,6.00
2023-03-25T10:47:15.400Z,3.08
2023-03-25T10:49:43.334Z,4.03
2023-03-25T10:52:09.866Z,7.95
2023-03-25T10:54:44.472Z,5.57
2023-03-25T10:57:20.205Z,7.72
2023-03-25T10:59:53.336Z,5.80
2023-03-25T11:04:52.603Z,5.32
2023-03-25T11:07:22.130Z,5.20
2023-03-25T11:09:48.560Z,4.25
2023-03-25T11:12:25.192Z,4.05
2023-03-25T11:14:56.882Z,4.47
2023-03-25T11:17:27.024Z,4.40
2023-03-25T11:19:59.351Z,6.00
2023-03-25T11:22:31.542Z,6.60
2023-03-25T11:25:04.539Z,6.00
2023-03-25T11:30:05.059Z,4.57
2023-03-25T11:32:35.219Z,4.90
2023-03-25T11:35:07.113Z,5.70
2023-03-25T11:37:43.654Z,5.32
2023-03-25T11:40:18.131Z,3.78
2023-03-25T11:42:49.889Z,5.07
2023-03-25T11:45:40.726Z,4.30
2023-03-25T11:48:15.913Z,6.00
2023-03-25T11:50:54.262Z,3.28
2023-03-25T11:53:22.484Z,5.22
2023-03-25T11:55:55.374Z,5.13
2023-03-25T11:58:33.794Z,8.55
2023-03-25T12:01:03.250Z,7.15
2023-03-25T12:03:32.351Z,6.47
2023-03-25T12:06:05.420Z,6.20
2023-03-25T12:08:51.584Z,5.78
2023-03-25T12:11:21.831Z,4.10
2023-03-25T12:14:29.054Z,7.07
2023-03-25T12:17:18.268Z,3.95
2023-03-25T12:20:20.329Z,3.85
2023-03-25T12:22:58.432Z,5.25
2023-03-25T12:25:28.802Z,4.32
2023-03-25T12:28:04.041Z,4.18
2023-03-25T12:30:53.720Z,4.25
2023-03-25T12:33:57.167Z,4.65
2023-03-25T12:36:44.569Z,8.27
2023-03-25T12:39:14.752Z,7.20
2023-03-25T12:41:47.121Z,5.10
2023-03-25T12:44:41.442Z,5.13
2023-03-25T12:47:20.848Z,5.60
2023-03-25T12:50:16.915Z,3.65
2023-03-25T12:53:10.600Z,4.30
2023-03-25T12:55:55.592Z,4.53
2023-03-25T12:58:28.238Z,5.13
2023-03-25T13:01:19.242Z,7.15
2023-03-25T13:04:05.426Z,5.32
2023-03-25T13:07:02.723Z,6.20
2023-03-25T13:09:52.168Z,4.43
2023-03-25T13:12:32.517Z,2.65
2023-03-25T13:15:04.167Z,4.60
2023-03-25T13:18:08.185Z,5.57
2023-03-25T13:20:41.078Z,5.40
2023-03-25T13:23:12.105Z,4.68
2023-03-25T13:25:48.652Z,6.63
2023-03-25T13:28:22.842Z,4.80
2023-03-25T13:30:50.549Z,4.30
2023-03-25T13:33:24.876Z,3.13
2023-03-25T13:36:01.313Z,5.32
2023-03-25T13:38:34.376Z,3.42
2023-03-25T13:43:41.216Z,5.00
2023-03-25T13:46:12.362Z,2.67
2023-03-25T13:48:53.954Z,7.68
2023-03-25T13:51:21.071Z,3.60
2023-03-25T13:54:04.482Z,6.25
2023-03-25T13:56:54.535Z,5.57
2023-03-25T13:59:58.655Z,5.82
2023-03-25T14:02:46.958Z,5.82
2023-03-25T14:05:32.287Z,4.32
2023-03-25T14:08:32.787Z,6.53
2023-03-25T14:11:14.311Z,7.32
2023-03-25T14:13:46.507Z,5.40
2023-03-25T14:16:19.606Z,5.32
2023-03-25T14:18:50.685Z,5.57
2023-03-25T14:21:29.099Z,9.88
2023-03-25T14:24:13.750Z,5.65
2023-03-25T14:26:53.529Z,4.70
2023-03-25T14:30:01.720Z,4.70
2023-03-25T14:32:37.433Z,4.80
2023-03-25T14:35:31.609Z,7.05
2023-03-25T14:38:10.018Z,4.40
2023-03-25T14:41:02.698Z,5.40
2023-03-25T14:43:33.224Z,6.50
2023-03-25T14:46:23.215Z,5.43
2023-03-25T14:49:18.225Z,7.55
2023-03-25T14:51:50.343Z,5.95
2023-03-25T14:54:32.206Z,6.28
2023-03-25T14:57:15.789Z,5.13
2023-03-25T14:59:46.098Z,5.30
2023-03-25T15:02:20.855Z,4.72
2023-03-25T15:05:00.111Z,4.10
2023-03-25T15:07:44.219Z,5.18
2023-03-25T15:10:25.369Z,3.67
2023-03-25T15:12:59.862Z,6.53
2023-03-25T15:15:47.203Z,4.20
2023-03-25T15:18:36.760Z,6.82
2023-03-25T15:21:04.399Z,7.35
2023-03-25T15:23:56.742Z,5.45
2023-03-25T15:26:30.983Z,4.07
2023-03-25T15:29:25.639Z,5.93
2023-03-25T15:32:20.837Z,4.43
2023-03-25T15:35:14.523Z,6.07
2023-03-25T15:38:07.774Z,8.80
2023-03-25T15:40:58.401Z,5.82
2023-03-25T15:44:00.527Z,6.03
2023-03-25T15:47:08.107Z,5.43
2023-03-25T15:50:22.042Z,4.32
2023-03-25T15:55:21.195Z,4.95
2023-03-25T15:57:49.727Z,7.35
2023-03-25T16:00:41.618Z,5.65
2023-03-25T16:03:15.554Z,4.45
2023-03-25T16:05:49.212Z,7.47
2023-03-25T16:08:19.672Z,3.88
2023-03-25T16:10:46.424Z,5.25
2023-03-25T16:13:17.615Z,5.30
2023-03-25T16:15:45.546Z,6.03
2023-03-25T16:18:15.691Z,9.25
2023-03-25T16:20:43.251Z,6.70
2023-03-25T16:23:19.793Z,4.53
2023-03-25T16:25:48.817Z,5.82
2023-03-25T16:28:20.758Z,5.60
2023-03-25T16:30:55.919Z,5.22
2023-03-25T16:33:28.431Z,8.32
2023-03-25T16:35:57.938Z,4.50
2023-03-25T16:38:25.525Z,7.18
2023-03-25T16:40:59.249Z,5.00
2023-03-25T16:43:27.275Z,7.68
2023-03-25T16:45:58.309Z,7.38
2023-03-25T16:48:35.425Z,6.85
2023-03-25T16:51:22.600Z,10.10
2023-03-25T16:53:53.577Z,4.38
2023-03-25T16:56:23.630Z,5.38
2023-03-25T16:59:17.040Z,5.07
2023-03-25T17:01:54.849Z,6.13
2023-03-25T17:04:26.678Z,3.03
2023-03-25T17:06:57.429Z,6.75
2023-03-25T17:09:33.908Z,7.85
2023-03-25T17:12:06.253Z,4.55
2023-03-25T17:14:37.762Z,3.70
2023-03-25T17:17:12.356Z,4.70
2023-03-25T17:19:46.106Z,8.02
2023-03-25T17:22:18.366Z,5.93
2023-03-25T17:24:57.202Z,3.95
2023-03-25T17:27:43.484Z,6.55
2023-03-25T17:30:20.704Z,7.40
2023-03-25T17:32:48.147Z,6.30
2023-03-25T17:35:29.922Z,7.57
2023-03-25T17:37:56.748Z,5.90
2023-03-25T17:40:28.325Z,6.55
2023-03-25T17:42:56.211Z,3.75
2023-03-25T17:45:25.465Z,7.78
2023-03-25T17:47:52.248Z,5.20
2023-03-25T17:50:25.533Z,3.75
2023-03-25T17:52:52.064Z,6.15
2023-03-25T17:55:18.589Z,5.57
2023-03-25T17:57:45.199Z,4.72
2023-03-25T18:00:18.695Z,3.13
2023-03-25T18:02:48.215Z,3.58
2023-03-25T18:05:15.384Z,4.53
2023-03-25T18:07:41.916Z,3.20
2023-03-25T18:10:20.648Z,4.20
2023-03-25T18:12:47.315Z,7.35
2023-03-25T18:15:13.768Z,3.08
2023-03-25T18:17:40.296Z,3.92
2023-03-25T18:20:19.199Z,4.47
2023-03-25T18:22:46.487Z,4.10
2023-03-25T18:25:14.161Z,6.22
2023-03-25T18:27:43.682Z,5.00
2023-03-25T18:30:21.493Z,4.18
2023-03-25T18:32:48.744Z,4.10
2023-03-25T18:35:15.262Z,4.85
2023-03-25T18:37:42.036Z,4.47
2023-03-25T18:40:23.824Z,6.15
2023-03-25T18:42:51.563Z,3.97
2023-03-25T18:45:23.418Z,3.53
2023-03-25T18:47:51.005Z,2.30
2023-03-25T18:50:38.978Z,3.80
2023-03-25T18:53:06.266Z,4.32
2023-03-25T18:55:34.692Z,3.85
2023-03-25T18:58:01.520Z,2.70
2023-03-25T19:00:34.758Z,3.42
2023-03-25T19:03:01.619Z,5.03
2023-03-25T19:05:28.191Z,5.60
2023-03-25T19:07:54.718Z,4.90
2023-03-25T19:10:30.348Z,5.68
2023-03-25T19:12:57.603Z,3.88
2023-03-25T19:15:27.528Z,6.20
2023-03-25T19:17:58.267Z,7.03
2023-03-25T19:20:27.237Z,6.00
2023-03-25T19:22:53.600Z,3.08
2023-03-25T19:25:20.274Z,4.20
2023-03-25T19:27:47.192Z,3.63
2023-03-25T19:30:16.757Z,3.67
2023-03-25T19:32:44.055Z,3.88
2023-03-25T19:35:11.526Z,4.57
2023-03-25T19:37:38.889Z,3.80
2023-03-25T19:40:09.099Z,3.35
2023-03-25T19:42:36.414Z,3.50
2023-03-25T19:45:04.477Z,4.80
2023-03-25T19:47:31.002Z,3.72
2023-03-25T19:49:57.820Z,2.95
2023-03-25T19:52:25.290Z,3.08
2023-03-25T19:54:51.801Z,4.13
2023-03-25T19:57:18.681Z,4.88
2023-03-25T19:59:45.076Z,3.10
2023-03-25T20:02:12.056Z,3.70
2023-03-25T20:04:39.674Z,3.60
2023-03-25T20:07:06.062Z,7.03
2023-03-25T20:09:32.477Z,4.72
2023-03-25T20:11:59.011Z,4.85
2023-03-25T20:14:25.742Z,3.00
2023-03-25T20:16:52.153Z,4.18
2023-03-25T20:19:18.547Z,6.38
2023-03-25T20:21:44.956Z,3.17
2023-03-25T20:24:11.355Z,5.20
2023-03-25T20:26:37.764Z,4.57
2023-03-25T20:29:04.241Z,3.58
2023-03-25T20:31:32.234Z,8.38
2023-03-25T20:33:58.731Z,3.85
2023-03-25T20:36:25.319Z,18.15
2023-03-25T20:38:57.510Z,17.02
2023-03-25T20:41:25.865Z,17.95
2023-03-25T20:43:52.356Z,15.43
2023-03-25T20:46:23.604Z,16.02
2023-03-25T20:48:50.549Z,15.63
2023-03-25T20:51:16.976Z,16.55
2023-03-25T20:53:44.612Z,17.27
2023-03-25T20:56:11.177Z,15.57
2023-03-25T20:58:37.918Z,18.42
2023-03-25T21:01:04.988Z,17.60
2023-03-25T21:03:32.266Z,16.17
2023-03-25T21:06:07.395Z,14.35
2023-03-25T21:08:40.608Z,16.50
2023-03-25T21:11:07.525Z,16.20
2023-03-25T21:13:34.318Z,14.07
2023-03-25T21:16:02.014Z,17.58
2023-03-25T21:18:29.126Z,14.98
2023-03-25T21:20:58.116Z,12.18
2023-03-25T21:23:31.757Z,13.60
2023-03-25T21:26:03.296Z,15.18
2023-03-25T21:28:31.260Z,15.93
2023-03-25T21:31:05.738Z,16.13
2023-03-25T21:33:39.536Z,16.33
2023-03-25T21:36:08.706Z,16.33
2023-03-25T21:38:36.052Z,17.10
2023-03-25T21:41:04.790Z,16.85
2023-03-25T21:43:35.209Z,20.55
2023-03-25T21:46:05.073Z,18.67
2023-03-25T21:48:32.496Z,15.60
2023-03-25T21:51:01.171Z,16.33
2023-03-25T21:53:31.878Z,14.75
2023-03-25T21:56:05.737Z,18.00
2023-03-25T21:58:34.272Z,15.23
2023-03-25T22:01:02.795Z,20.20
2023-03-25T22:03:30.269Z,15.65
2023-03-25T22:06:02.072Z,17.88
2023-03-25T22:08:28.750Z,17.65
2023-03-25T22:11:05.070Z,16.02
2023-03-25T22:13:32.007Z,17.77
2023-03-25T22:15:59.081Z,15.30
2023-03-25T22:18:26.547Z,17.33
2023-03-25T22:20:53.133Z,15.50
2023-03-25T22:23:21.372Z,18.10
2023-03-25T22:25:47.820Z,14.88
2023-03-25T22:28:14.201Z,16.08
2023-03-25T22:30:40.674Z,15.30
2023-03-25T22:33:07.211Z,17.25
2023-03-25T22:35:33.741Z,15.27
2023-03-25T22:38:00.159Z,17.60
2023-03-25T22:40:27.088Z,18.13
2023-03-25T22:42:53.473Z,16.02
2023-03-25T22:45:19.840Z,15.35
2023-03-25T22:47:46.285Z,18.25
2023-03-25T22:50:12.743Z,17.75
2023-03-25T22:52:42.174Z,15.52
2023-03-25T22:55:09.528Z,17.95
2023-03-25T22:57:35.996Z,16.10
2023-03-25T23:00:08.198Z,20.25
2023-03-25T23:02:34.659Z,19.70
2023-03-25T23:05:01.054Z,14.45
2023-03-25T23:07:27.433Z,15.45
2023-03-25T23:09:53.936Z,14.43
2023-03-25T23:12:22.787Z,17.45
2023-03-25T23:14:55.608Z,16.20
2023-03-25T23:17:23.876Z,16.80
2023-03-25T23:19:50.595Z,14.43
2023-03-25T23:22:17.122Z,15.35
2023-03-25T23:24:43.618Z,16.42
2023-03-25T23:27:11.532Z,16.70
2023-03-25T23:29:39.214Z,18.92
2023-03-25T23:32:07.783Z,21.88
2023-03-25T23:34:34.899Z,18.92
2023-03-25T23:37:02.807Z,15.93
2023-03-25T23:39:29.348Z,17.08
2023-03-25T23:41:55.966Z,16.50
2023-03-25T23:44:22.500Z,20.77
2023-03-25T23:46:50.912Z,16.27
2023-03-25T23:49:17.950Z,16.02
2023-03-25T23:51:44.700Z,17.45
2023-03-25T23:54:13.799Z,19.02
2023-03-25T23:56:41.832Z,23.98
2023-03-25T23:59:09.084Z,16.00
